sensor_id;sensor_type;location;lat;lon;timestamp;temperature;humidity
73688;SHT30;62257;48.376;-4.378;2022-07-29T00:01:06;18.50;71.16
73688;SHT30;62257;48.376;-4.378;2022-07-29T00:03:31;18.51;70.70
73688;SHT30;62257;48.376;-4.378;2022-07-29T00:05:57;18.47;71.32
73688;SHT30;62257;48.376;-4.378;2022-07-29T00:08:22;18.50;70.05
73688;SHT30;62257;48.376;-4.378;2022-07-29T00:10:48;18.47;71.70
73688;SHT30;62257;48.376;-4.378;2022-07-29T00:13:13;18.48;70.40
73688;SHT30;62257;48.376;-4.378;2022-07-29T00:15:38;18.45;71.73
73688;SHT30;62257;48.376;-4.378;2022-07-29T00:18:04;18.45;69.89
73688;SHT30;62257;48.376;-4.378;2022-07-29T00:20:30;18.44;69.68
73688;SHT30;62257;48.376;-4.378;2022-07-29T00:22:55;18.45;72.52
73688;SHT30;62257;48.376;-4.378;2022-07-29T00:25:20;18.43;71.24
73688;SHT30;62257;48.376;-4.378;2022-07-29T00:27:46;18.44;71.74
73688;SHT30;62257;48.376;-4.378;2022-07-29T00:30:12;18.41;72.64
73688;SHT30;62257;48.376;-4.378;2022-07-29T00:32:37;18.41;72.57
73688;SHT30;62257;48.376;-4.378;2022-07-29T00:35:03;18.41;71.71
73688;SHT30;62257;48.376;-4.378;2022-07-29T00:37:48;18.40;72.84
73688;SHT30;62257;48.376;-4.378;2022-07-29T00:40:13;18.37;72.52
73688;SHT30;62257;48.376;-4.378;2022-07-29T00:42:46;18.30;70.73
73688;SHT30;62257;48.376;-4.378;2022-07-29T00:45:12;18.29;70.43
73688;SHT30;62257;48.376;-4.378;2022-07-29T00:47:38;18.20;71.82
73688;SHT30;62257;48.376;-4.378;2022-07-29T00:50:05;18.17;71.48
73688;SHT30;62257;48.376;-4.378;2022-07-29T00:52:31;18.16;71.26
73688;SHT30;62257;48.376;-4.378;2022-07-29T00:54:57;18.12;71.46
73688;SHT30;62257;48.376;-4.378;2022-07-29T00:57:22;18.13;73.31
73688;SHT30;62257;48.376;-4.378;2022-07-29T00:59:48;18.10;71.85
73688;SHT30;62257;48.376;-4.378;2022-07-29T01:02:13;18.09;71.79
73688;SHT30;62257;48.376;-4.378;2022-07-29T01:04:39;18.06;73.58
73688;SHT30;62257;48.376;-4.378;2022-07-29T01:07:05;18.06;72.53
73688;SHT30;62257;48.376;-4.378;2022-07-29T01:09:32;18.06;73.58
73688;SHT30;62257;48.376;-4.378;2022-07-29T01:11:58;18.10;74.79
73688;SHT30;62257;48.376;-4.378;2022-07-29T01:14:25;18.14;72.23
73688;SHT30;62257;48.376;-4.378;2022-07-29T01:17:11;18.16;74.27
73688;SHT30;62257;48.376;-4.378;2022-07-29T01:19:53;18.17;72.93
73688;SHT30;62257;48.376;-4.378;2022-07-29T01:25:00;18.16;73.45
73688;SHT30;62257;48.376;-4.378;2022-07-29T01:30:26;18.13;73.16
73688;SHT30;62257;48.376;-4.378;2022-07-29T01:33:03;18.10;74.95
73688;SHT30;62257;48.376;-4.378;2022-07-29T01:35:41;18.09;75.65
73688;SHT30;62257;48.376;-4.378;2022-07-29T01:38:13;18.07;75.81
73688;SHT30;62257;48.376;-4.378;2022-07-29T01:41:06;18.09;75.74
73688;SHT30;62257;48.376;-4.378;2022-07-29T01:44:18;18.03;74.54
73688;SHT30;62257;48.376;-4.378;2022-07-29T01:46:52;18.03;74.01
73688;SHT30;62257;48.376;-4.378;2022-07-29T01:49:26;18.00;75.91
73688;SHT30;62257;48.376;-4.378;2022-07-29T01:51:59;17.99;75.41
73688;SHT30;62257;48.376;-4.378;2022-07-29T01:54:38;17.98;76.32
73688;SHT30;62257;48.376;-4.378;2022-07-29T01:57:09;17.99;76.54
73688;SHT30;62257;48.376;-4.378;2022-07-29T01:59:37;18.02;75.35
73688;SHT30;62257;48.376;-4.378;2022-07-29T02:02:04;18.03;73.97
73688;SHT30;62257;48.376;-4.378;2022-07-29T02:04:33;18.00;76.30
73688;SHT30;62257;48.376;-4.378;2022-07-29T02:07:02;17.98;76.29
73688;SHT30;62257;48.376;-4.378;2022-07-29T02:09:30;17.99;77.13
73688;SHT30;62257;48.376;-4.378;2022-07-29T02:11:57;17.98;76.71
73688;SHT30;62257;48.376;-4.378;2022-07-29T02:14:24;17.93;77.25
73688;SHT30;62257;48.376;-4.378;2022-07-29T02:16:53;17.93;74.54
73688;SHT30;62257;48.376;-4.378;2022-07-29T02:19:21;17.95;75.58
73688;SHT30;62257;48.376;-4.378;2022-07-29T02:21:50;17.90;75.54
73688;SHT30;62257;48.376;-4.378;2022-07-29T02:24:17;17.86;77.60
73688;SHT30;62257;48.376;-4.378;2022-07-29T02:26:44;17.86;76.32
73688;SHT30;62257;48.376;-4.378;2022-07-29T02:29:11;17.89;75.32
73688;SHT30;62257;48.376;-4.378;2022-07-29T02:31:38;17.88;75.57
73688;SHT30;62257;48.376;-4.378;2022-07-29T02:34:06;17.85;76.96
73688;SHT30;62257;48.376;-4.378;2022-07-29T02:36:32;17.82;77.86
73688;SHT30;62257;48.376;-4.378;2022-07-29T02:38:59;17.81;77.46
73688;SHT30;62257;48.376;-4.378;2022-07-29T02:41:35;17.79;77.97
73688;SHT30;62257;48.376;-4.378;2022-07-29T02:44:06;17.83;77.15
73688;SHT30;62257;48.376;-4.378;2022-07-29T02:46:35;17.83;75.69
73688;SHT30;62257;48.376;-4.378;2022-07-29T02:49:09;17.81;75.96
73688;SHT30;62257;48.376;-4.378;2022-07-29T02:52:00;17.79;75.27
73688;SHT30;62257;48.376;-4.378;2022-07-29T02:54:31;17.77;77.61
73688;SHT30;62257;48.376;-4.378;2022-07-29T02:57:00;17.74;76.25
73688;SHT30;62257;48.376;-4.378;2022-07-29T02:59:30;17.74;76.16
73688;SHT30;62257;48.376;-4.378;2022-07-29T03:01:59;17.69;76.30
73688;SHT30;62257;48.376;-4.378;2022-07-29T03:04:25;17.65;75.37
73688;SHT30;62257;48.376;-4.378;2022-07-29T03:06:53;17.65;78.12
73688;SHT30;62257;48.376;-4.378;2022-07-29T03:09:20;17.65;78.42
73688;SHT30;62257;48.376;-4.378;2022-07-29T03:11:47;17.64;78.22
73688;SHT30;62257;48.376;-4.378;2022-07-29T03:14:13;17.68;78.44
73688;SHT30;62257;48.376;-4.378;2022-07-29T03:16:39;17.71;76.16
73688;SHT30;62257;48.376;-4.378;2022-07-29T03:19:05;17.65;78.43
73688;SHT30;62257;48.376;-4.378;2022-07-29T03:21:31;17.62;76.71
73688;SHT30;62257;48.376;-4.378;2022-07-29T03:23:56;17.58;77.06
73688;SHT30;62257;48.376;-4.378;2022-07-29T03:26:22;17.51;79.33
73688;SHT30;62257;48.376;-4.378;2022-07-29T03:28:47;17.48;79.29
73688;SHT30;62257;48.376;-4.378;2022-07-29T03:31:12;17.45;77.57
73688;SHT30;62257;48.376;-4.378;2022-07-29T03:33:38;17.42;78.01
73688;SHT30;62257;48.376;-4.378;2022-07-29T03:36:03;17.41;79.81
73688;SHT30;62257;48.376;-4.378;2022-07-29T03:38:30;17.42;79.71
73688;SHT30;62257;48.376;-4.378;2022-07-29T03:41:03;17.41;78.77
73688;SHT30;62257;48.376;-4.378;2022-07-29T03:43:34;17.40;78.00
73688;SHT30;62257;48.376;-4.378;2022-07-29T03:46:02;17.34;78.57
73688;SHT30;62257;48.376;-4.378;2022-07-29T03:48:30;17.34;78.95
73688;SHT30;62257;48.376;-4.378;2022-07-29T03:50:57;17.33;77.85
73688;SHT30;62257;48.376;-4.378;2022-07-29T03:53:23;17.33;80.29
73688;SHT30;62257;48.376;-4.378;2022-07-29T03:55:53;17.35;80.94
73688;SHT30;62257;48.376;-4.378;2022-07-29T03:58:19;17.34;79.28
73688;SHT30;62257;48.376;-4.378;2022-07-29T04:00:46;17.33;81.15
73688;SHT30;62257;48.376;-4.378;2022-07-29T04:03:12;17.30;78.88
73688;SHT30;62257;48.376;-4.378;2022-07-29T04:05:38;17.30;78.96
73688;SHT30;62257;48.376;-4.378;2022-07-29T04:08:04;17.27;79.80
73688;SHT30;62257;48.376;-4.378;2022-07-29T04:10:30;17.23;78.61
73688;SHT30;62257;48.376;-4.378;2022-07-29T04:12:55;17.24;79.52
73688;SHT30;62257;48.376;-4.378;2022-07-29T04:15:21;17.20;81.40
73688;SHT30;62257;48.376;-4.378;2022-07-29T04:17:46;17.14;79.95
73688;SHT30;62257;48.376;-4.378;2022-07-29T04:20:12;17.13;81.52
73688;SHT30;62257;48.376;-4.378;2022-07-29T04:22:39;17.09;80.12
73688;SHT30;62257;48.376;-4.378;2022-07-29T04:25:05;17.10;79.37
73688;SHT30;62257;48.376;-4.378;2022-07-29T04:27:30;17.07;79.51
73688;SHT30;62257;48.376;-4.378;2022-07-29T04:29:55;17.00;80.15
73688;SHT30;62257;48.376;-4.378;2022-07-29T04:32:21;16.96;80.90
73688;SHT30;62257;48.376;-4.378;2022-07-29T04:34:46;16.90;81.04
73688;SHT30;62257;48.376;-4.378;2022-07-29T04:37:12;16.90;82.17
73688;SHT30;62257;48.376;-4.378;2022-07-29T04:39:37;16.86;81.31
73688;SHT30;62257;48.376;-4.378;2022-07-29T04:42:03;16.85;82.53
73688;SHT30;62257;48.376;-4.378;2022-07-29T04:44:28;16.80;83.07
73688;SHT30;62257;48.376;-4.378;2022-07-29T04:46:54;16.80;82.07
73688;SHT30;62257;48.376;-4.378;2022-07-29T04:49:19;16.82;82.51
73688;SHT30;62257;48.376;-4.378;2022-07-29T04:51:45;16.79;82.82
73688;SHT30;62257;48.376;-4.378;2022-07-29T04:54:10;16.79;81.85
73688;SHT30;62257;48.376;-4.378;2022-07-29T04:56:36;16.77;81.75
73688;SHT30;62257;48.376;-4.378;2022-07-29T04:59:01;16.76;81.91
73688;SHT30;62257;48.376;-4.378;2022-07-29T05:01:26;16.77;82.84
73688;SHT30;62257;48.376;-4.378;2022-07-29T05:03:52;16.75;82.89
73688;SHT30;62257;48.376;-4.378;2022-07-29T05:06:17;16.76;82.17
73688;SHT30;62257;48.376;-4.378;2022-07-29T05:08:43;16.73;83.55
73688;SHT30;62257;48.376;-4.378;2022-07-29T05:11:08;16.76;82.05
73688;SHT30;62257;48.376;-4.378;2022-07-29T05:13:34;16.75;83.08
73688;SHT30;62257;48.376;-4.378;2022-07-29T05:15:59;16.75;82.66
73688;SHT30;62257;48.376;-4.378;2022-07-29T05:18:25;16.83;82.44
73688;SHT30;62257;48.376;-4.378;2022-07-29T05:20:51;16.89;81.21
73688;SHT30;62257;48.376;-4.378;2022-07-29T05:23:16;16.96;82.62
73688;SHT30;62257;48.376;-4.378;2022-07-29T05:25:42;17.02;81.71
73688;SHT30;62257;48.376;-4.378;2022-07-29T05:28:07;17.10;82.92
73688;SHT30;62257;48.376;-4.378;2022-07-29T05:30:32;17.17;82.86
73688;SHT30;62257;48.376;-4.378;2022-07-29T05:32:58;17.23;81.44
73688;SHT30;62257;48.376;-4.378;2022-07-29T05:35:23;17.23;82.81
73688;SHT30;62257;48.376;-4.378;2022-07-29T05:37:49;17.33;81.66
73688;SHT30;62257;48.376;-4.378;2022-07-29T05:40:14;17.40;82.22
73688;SHT30;62257;48.376;-4.378;2022-07-29T05:42:39;17.38;81.39
73688;SHT30;62257;48.376;-4.378;2022-07-29T05:45:06;17.48;82.26
73688;SHT30;62257;48.376;-4.378;2022-07-29T05:47:31;17.60;80.88
73688;SHT30;62257;48.376;-4.378;2022-07-29T05:49:57;17.62;81.53
73688;SHT30;62257;48.376;-4.378;2022-07-29T05:52:23;17.71;80.61
73688;SHT30;62257;48.376;-4.378;2022-07-29T05:54:48;17.83;80.07
73688;SHT30;62257;48.376;-4.378;2022-07-29T05:57:22;17.96;79.87
73688;SHT30;62257;48.376;-4.378;2022-07-29T05:59:48;18.09;79.75
73688;SHT30;62257;48.376;-4.378;2022-07-29T06:02:14;18.17;79.58
73688;SHT30;62257;48.376;-4.378;2022-07-29T06:04:40;18.25;79.46
73688;SHT30;62257;48.376;-4.378;2022-07-29T06:07:05;18.30;79.15
73688;SHT30;62257;48.376;-4.378;2022-07-29T06:09:31;18.27;79.13
73688;SHT30;62257;48.376;-4.378;2022-07-29T06:11:57;18.26;79.04
73688;SHT30;62257;48.376;-4.378;2022-07-29T06:14:23;18.30;79.35
73688;SHT30;62257;48.376;-4.378;2022-07-29T06:16:49;18.33;78.76
73688;SHT30;62257;48.376;-4.378;2022-07-29T06:19:14;18.32;78.66
73688;SHT30;62257;48.376;-4.378;2022-07-29T06:21:43;18.27;79.28
73688;SHT30;62257;48.376;-4.378;2022-07-29T06:24:10;18.32;78.84
73688;SHT30;62257;48.376;-4.378;2022-07-29T06:26:37;18.37;78.73
73688;SHT30;62257;48.376;-4.378;2022-07-29T06:29:02;18.44;78.67
73688;SHT30;62257;48.376;-4.378;2022-07-29T06:31:27;18.57;78.60
73688;SHT30;62257;48.376;-4.378;2022-07-29T06:33:53;18.64;78.19
73688;SHT30;62257;48.376;-4.378;2022-07-29T06:36:18;18.79;77.53
73688;SHT30;62257;48.376;-4.378;2022-07-29T06:38:44;18.92;77.25
73688;SHT30;62257;48.376;-4.378;2022-07-29T06:41:09;19.08;76.86
73688;SHT30;62257;48.376;-4.378;2022-07-29T06:43:41;19.16;76.46
73688;SHT30;62257;48.376;-4.378;2022-07-29T06:46:12;19.33;76.15
73688;SHT30;62257;48.376;-4.378;2022-07-29T06:48:39;19.41;75.79
73688;SHT30;62257;48.376;-4.378;2022-07-29T06:51:05;19.53;75.40
73688;SHT30;62257;48.376;-4.378;2022-07-29T06:53:33;19.54;75.33
73688;SHT30;62257;48.376;-4.378;2022-07-29T06:55:59;19.66;75.26
73688;SHT30;62257;48.376;-4.378;2022-07-29T06:58:25;19.66;74.96
73688;SHT30;62257;48.376;-4.378;2022-07-29T07:00:51;19.70;74.76
73688;SHT30;62257;48.376;-4.378;2022-07-29T07:03:17;19.75;74.55
73688;SHT30;62257;48.376;-4.378;2022-07-29T07:05:43;19.89;73.81
73688;SHT30;62257;48.376;-4.378;2022-07-29T07:08:10;19.91;73.71
73688;SHT30;62257;48.376;-4.378;2022-07-29T07:10:36;19.98;73.59
73688;SHT30;62257;48.376;-4.378;2022-07-29T07:13:03;20.09;72.67
73688;SHT30;62257;48.376;-4.378;2022-07-29T07:15:29;20.22;72.41
73688;SHT30;62257;48.376;-4.378;2022-07-29T07:17:55;20.32;72.24
73688;SHT30;62257;48.376;-4.378;2022-07-29T07:20:20;20.39;72.01
73688;SHT30;62257;48.376;-4.378;2022-07-29T07:22:46;20.43;71.71
73688;SHT30;62257;48.376;-4.378;2022-07-29T07:25:11;20.59;70.46
73688;SHT30;62257;48.376;-4.378;2022-07-29T07:27:37;20.66;69.85
73688;SHT30;62257;48.376;-4.378;2022-07-29T07:30:04;21.09;68.48
73688;SHT30;62257;48.376;-4.378;2022-07-29T07:32:33;22.59;64.86
73688;SHT30;62257;48.376;-4.378;2022-07-29T07:34:59;24.00;60.74
73688;SHT30;62257;48.376;-4.378;2022-07-29T07:37:25;25.00;56.67
73688;SHT30;62257;48.376;-4.378;2022-07-29T07:39:51;25.30;56.26
73688;SHT30;62257;48.376;-4.378;2022-07-29T07:42:17;24.54;55.43
73688;SHT30;62257;48.376;-4.378;2022-07-29T07:44:43;24.69;56.73
73688;SHT30;62257;48.376;-4.378;2022-07-29T07:47:08;24.07;58.61
73688;SHT30;62257;48.376;-4.378;2022-07-29T07:49:34;23.78;59.58
73688;SHT30;62257;48.376;-4.378;2022-07-29T07:51:59;24.16;57.55
73688;SHT30;62257;48.376;-4.378;2022-07-29T07:54:24;25.64;55.18
73688;SHT30;62257;48.376;-4.378;2022-07-29T07:56:50;26.60;52.00
73688;SHT30;62257;48.376;-4.378;2022-07-29T07:59:16;27.36;48.92
73688;SHT30;62257;48.376;-4.378;2022-07-29T08:01:42;27.87;47.13
73688;SHT30;62257;48.376;-4.378;2022-07-29T08:04:08;28.29;45.70
73688;SHT30;62257;48.376;-4.378;2022-07-29T08:06:34;28.00;47.48
73688;SHT30;62257;48.376;-4.378;2022-07-29T08:09:01;27.31;47.94
73688;SHT30;62257;48.376;-4.378;2022-07-29T08:11:27;25.85;51.32
73688;SHT30;62257;48.376;-4.378;2022-07-29T08:13:52;24.73;54.61
73688;SHT30;62257;48.376;-4.378;2022-07-29T08:16:18;24.12;57.12
73688;SHT30;62257;48.376;-4.378;2022-07-29T08:18:44;23.89;57.77
73688;SHT30;62257;48.376;-4.378;2022-07-29T08:21:12;25.03;55.63
73688;SHT30;62257;48.376;-4.378;2022-07-29T08:23:37;26.51;50.87
73688;SHT30;62257;48.376;-4.378;2022-07-29T08:26:12;27.64;48.14
73688;SHT30;62257;48.376;-4.378;2022-07-29T08:28:39;28.12;46.82
73688;SHT30;62257;48.376;-4.378;2022-07-29T08:31:05;28.24;47.57
73688;SHT30;62257;48.376;-4.378;2022-07-29T08:33:31;28.34;45.64
73688;SHT30;62257;48.376;-4.378;2022-07-29T08:35:57;28.35;46.43
73688;SHT30;62257;48.376;-4.378;2022-07-29T08:38:22;28.55;46.36
73688;SHT30;62257;48.376;-4.378;2022-07-29T08:40:48;28.53;44.67
73688;SHT30;62257;48.376;-4.378;2022-07-29T08:43:14;28.66;46.03
73688;SHT30;62257;48.376;-4.378;2022-07-29T08:45:44;28.74;44.96
73688;SHT30;62257;48.376;-4.378;2022-07-29T08:48:12;28.36;44.70
73688;SHT30;62257;48.376;-4.378;2022-07-29T08:50:39;28.39;45.60
73688;SHT30;62257;48.376;-4.378;2022-07-29T08:53:10;28.48;43.55
73688;SHT30;62257;48.376;-4.378;2022-07-29T08:55:39;28.41;44.25
73688;SHT30;62257;48.376;-4.378;2022-07-29T08:58:05;28.36;45.50
73688;SHT30;62257;48.376;-4.378;2022-07-29T09:00:31;28.31;44.56
73688;SHT30;62257;48.376;-4.378;2022-07-29T09:02:58;28.12;44.36
73688;SHT30;62257;48.376;-4.378;2022-07-29T09:05:25;27.93;45.15
73688;SHT30;62257;48.376;-4.378;2022-07-29T09:07:52;27.77;43.82
73688;SHT30;62257;48.376;-4.378;2022-07-29T09:10:17;27.60;46.13
73688;SHT30;62257;48.376;-4.378;2022-07-29T09:12:43;27.36;43.78
73688;SHT30;62257;48.376;-4.378;2022-07-29T09:15:08;27.19;43.70
73688;SHT30;62257;48.376;-4.378;2022-07-29T09:20:12;27.23;45.96
73688;SHT30;62257;48.376;-4.378;2022-07-29T09:22:38;27.21;44.71
73688;SHT30;62257;48.376;-4.378;2022-07-29T09:25:03;27.11;46.66
73688;SHT30;62257;48.376;-4.378;2022-07-29T09:27:29;27.04;46.92
73688;SHT30;62257;48.376;-4.378;2022-07-29T09:29:56;26.90;46.21
73688;SHT30;62257;48.376;-4.378;2022-07-29T09:32:22;26.80;46.30
73688;SHT30;62257;48.376;-4.378;2022-07-29T09:34:48;26.75;45.06
73688;SHT30;62257;48.376;-4.378;2022-07-29T09:37:26;26.64;44.68
73688;SHT30;62257;48.376;-4.378;2022-07-29T09:39:51;26.63;44.30
73688;SHT30;62257;48.376;-4.378;2022-07-29T09:42:27;26.64;43.83
73688;SHT30;62257;48.376;-4.378;2022-07-29T09:44:53;26.58;44.61
73688;SHT30;62257;48.376;-4.378;2022-07-29T09:47:19;26.60;44.41
73688;SHT30;62257;48.376;-4.378;2022-07-29T09:50:04;26.63;44.25
73688;SHT30;62257;48.376;-4.378;2022-07-29T09:52:30;26.74;46.10
73688;SHT30;62257;48.376;-4.378;2022-07-29T09:55:06;26.83;45.40
73688;SHT30;62257;48.376;-4.378;2022-07-29T09:57:32;26.84;44.59
73688;SHT30;62257;48.376;-4.378;2022-07-29T10:00:08;26.96;44.82
73688;SHT30;62257;48.376;-4.378;2022-07-29T10:02:37;27.13;45.65
73688;SHT30;62257;48.376;-4.378;2022-07-29T10:05:05;27.05;43.00
73688;SHT30;62257;48.376;-4.378;2022-07-29T10:07:46;26.83;45.42
73688;SHT30;62257;48.376;-4.378;2022-07-29T10:10:22;26.84;43.83
73688;SHT30;62257;48.376;-4.378;2022-07-29T10:12:55;26.95;44.96
73688;SHT30;62257;48.376;-4.378;2022-07-29T10:15:26;27.05;45.67
73688;SHT30;62257;48.376;-4.378;2022-07-29T10:17:53;26.99;43.88
73688;SHT30;62257;48.376;-4.378;2022-07-29T10:20:20;26.91;43.46
73688;SHT30;62257;48.376;-4.378;2022-07-29T10:22:47;26.88;44.38
73688;SHT30;62257;48.376;-4.378;2022-07-29T10:25:14;26.78;43.64
73688;SHT30;62257;48.376;-4.378;2022-07-29T10:27:39;26.77;44.14
73688;SHT30;62257;48.376;-4.378;2022-07-29T10:30:06;26.57;42.61
73688;SHT30;62257;48.376;-4.378;2022-07-29T10:40:51;26.02;43.70
73688;SHT30;62257;48.376;-4.378;2022-07-29T10:43:42;25.78;44.47
73688;SHT30;62257;48.376;-4.378;2022-07-29T10:46:10;25.67;44.74
73688;SHT30;62257;48.376;-4.378;2022-07-29T10:52:10;25.61;46.36
73688;SHT30;62257;48.376;-4.378;2022-07-29T10:54:37;25.58;46.12
73688;SHT30;62257;48.376;-4.378;2022-07-29T10:57:22;25.58;47.32
73688;SHT30;62257;48.376;-4.378;2022-07-29T11:05:27;25.44;47.01
73688;SHT30;62257;48.376;-4.378;2022-07-29T11:10:43;25.38;47.18
73688;SHT30;62257;48.376;-4.378;2022-07-29T11:13:08;25.44;47.03
73688;SHT30;62257;48.376;-4.378;2022-07-29T11:15:56;25.48;47.10
73688;SHT30;62257;48.376;-4.378;2022-07-29T11:18:22;25.47;46.94
73688;SHT30;62257;48.376;-4.378;2022-07-29T11:20:49;25.48;47.89
73688;SHT30;62257;48.376;-4.378;2022-07-29T11:25:44;25.47;47.17
73688;SHT30;62257;48.376;-4.378;2022-07-29T11:28:21;25.54;48.14
73688;SHT30;62257;48.376;-4.378;2022-07-29T11:33:31;25.55;45.25
73688;SHT30;62257;48.376;-4.378;2022-07-29T11:36:26;25.63;46.94
73688;SHT30;62257;48.376;-4.378;2022-07-29T11:39:27;25.63;47.21
73688;SHT30;62257;48.376;-4.378;2022-07-29T11:41:52;25.63;46.90
73688;SHT30;62257;48.376;-4.378;2022-07-29T11:44:58;25.65;47.18
73688;SHT30;62257;48.376;-4.378;2022-07-29T11:47:25;25.54;48.04
73688;SHT30;62257;48.376;-4.378;2022-07-29T11:49:51;25.40;47.96
73688;SHT30;62257;48.376;-4.378;2022-07-29T11:52:18;25.44;47.57
73688;SHT30;62257;48.376;-4.378;2022-07-29T11:54:44;25.34;47.47
73688;SHT30;62257;48.376;-4.378;2022-07-29T11:57:12;25.16;47.47
73688;SHT30;62257;48.376;-4.378;2022-07-29T11:59:40;25.06;48.26
73688;SHT30;62257;48.376;-4.378;2022-07-29T12:02:07;25.19;48.17
73688;SHT30;62257;48.376;-4.378;2022-07-29T12:04:33;25.06;48.07
73688;SHT30;62257;48.376;-4.378;2022-07-29T12:06:58;25.05;48.18
73688;SHT30;62257;48.376;-4.378;2022-07-29T12:09:24;24.99;47.65
73688;SHT30;62257;48.376;-4.378;2022-07-29T12:11:56;24.92;48.08
73688;SHT30;62257;48.376;-4.378;2022-07-29T12:14:29;25.07;48.25
73688;SHT30;62257;48.376;-4.378;2022-07-29T12:16:55;25.31;48.86
73688;SHT30;62257;48.376;-4.378;2022-07-29T12:19:21;25.28;49.73
73688;SHT30;62257;48.376;-4.378;2022-07-29T12:21:47;25.36;49.63
73688;SHT30;62257;48.376;-4.378;2022-07-29T12:24:13;25.51;50.33
73688;SHT30;62257;48.376;-4.378;2022-07-29T12:29:20;25.72;48.95
73688;SHT30;62257;48.376;-4.378;2022-07-29T12:31:46;25.74;48.79
73688;SHT30;62257;48.376;-4.378;2022-07-29T12:34:13;25.82;48.97
73688;SHT30;62257;48.376;-4.378;2022-07-29T12:36:40;25.86;48.71
73688;SHT30;62257;48.376;-4.378;2022-07-29T12:39:06;25.89;48.15
73688;SHT30;62257;48.376;-4.378;2022-07-29T12:41:31;25.88;48.86
73688;SHT30;62257;48.376;-4.378;2022-07-29T12:43:57;25.86;48.71
73688;SHT30;62257;48.376;-4.378;2022-07-29T12:46:23;25.85;48.84
73688;SHT30;62257;48.376;-4.378;2022-07-29T12:48:54;25.86;49.06
73688;SHT30;62257;48.376;-4.378;2022-07-29T12:51:34;25.68;48.83
73688;SHT30;62257;48.376;-4.378;2022-07-29T12:54:09;25.47;49.33
73688;SHT30;62257;48.376;-4.378;2022-07-29T12:56:37;25.40;49.40
73688;SHT30;62257;48.376;-4.378;2022-07-29T12:59:15;25.41;49.22
73688;SHT30;62257;48.376;-4.378;2022-07-29T13:01:40;25.47;49.07
73688;SHT30;62257;48.376;-4.378;2022-07-29T13:04:06;25.48;49.44
73688;SHT30;62257;48.376;-4.378;2022-07-29T13:06:42;25.54;48.88
73688;SHT30;62257;48.376;-4.378;2022-07-29T13:09:11;25.51;48.60
73688;SHT30;62257;48.376;-4.378;2022-07-29T13:14:05;25.53;49.04
73688;SHT30;62257;48.376;-4.378;2022-07-29T13:16:31;25.43;48.51
73688;SHT30;62257;48.376;-4.378;2022-07-29T13:19:10;25.40;49.13
73688;SHT30;62257;48.376;-4.378;2022-07-29T13:21:37;25.43;48.30
73688;SHT30;62257;48.376;-4.378;2022-07-29T13:24:05;25.46;48.30
73688;SHT30;62257;48.376;-4.378;2022-07-29T13:26:31;25.50;48.20
73688;SHT30;62257;48.376;-4.378;2022-07-29T13:28:57;25.44;48.40
73688;SHT30;62257;48.376;-4.378;2022-07-29T13:31:22;25.48;48.51
73688;SHT30;62257;48.376;-4.378;2022-07-29T13:33:48;25.48;48.10
73688;SHT30;62257;48.376;-4.378;2022-07-29T13:36:13;25.44;47.85
73688;SHT30;62257;48.376;-4.378;2022-07-29T13:38:39;25.41;48.13
73688;SHT30;62257;48.376;-4.378;2022-07-29T13:41:04;25.37;48.40
73688;SHT30;62257;48.376;-4.378;2022-07-29T13:43:30;25.40;47.95
73688;SHT30;62257;48.376;-4.378;2022-07-29T13:45:55;25.37;47.92
73688;SHT30;62257;48.376;-4.378;2022-07-29T13:48:21;25.36;48.47
73688;SHT30;62257;48.376;-4.378;2022-07-29T13:50:46;25.36;47.92
73688;SHT30;62257;48.376;-4.378;2022-07-29T13:53:13;25.33;48.16
73688;SHT30;62257;48.376;-4.378;2022-07-29T13:55:38;25.30;48.57
73688;SHT30;62257;48.376;-4.378;2022-07-29T13:58:04;25.37;48.33
73688;SHT30;62257;48.376;-4.378;2022-07-29T14:00:29;25.40;48.05
73688;SHT30;62257;48.376;-4.378;2022-07-29T14:02:55;25.36;47.88
73688;SHT30;62257;48.376;-4.378;2022-07-29T14:05:20;25.41;47.35
73688;SHT30;62257;48.376;-4.378;2022-07-29T14:07:46;25.43;47.85
73688;SHT30;62257;48.376;-4.378;2022-07-29T14:10:11;25.43;47.62
73688;SHT30;62257;48.376;-4.378;2022-07-29T14:12:37;25.47;47.89
73688;SHT30;62257;48.376;-4.378;2022-07-29T14:15:03;25.43;47.33
73688;SHT30;62257;48.376;-4.378;2022-07-29T14:17:29;25.51;47.31
73688;SHT30;62257;48.376;-4.378;2022-07-29T14:19:54;25.54;47.39
73688;SHT30;62257;48.376;-4.378;2022-07-29T14:22:19;25.48;47.17
73688;SHT30;62257;48.376;-4.378;2022-07-29T14:24:45;25.43;46.51
73688;SHT30;62257;48.376;-4.378;2022-07-29T14:27:10;25.44;47.01
73688;SHT30;62257;48.376;-4.378;2022-07-29T14:29:36;25.44;47.12
73688;SHT30;62257;48.376;-4.378;2022-07-29T14:32:02;25.43;46.03
73688;SHT30;62257;48.376;-4.378;2022-07-29T14:34:28;25.36;46.49
73688;SHT30;62257;48.376;-4.378;2022-07-29T14:36:53;25.34;46.84
73688;SHT30;62257;48.376;-4.378;2022-07-29T14:39:21;25.31;46.74
73688;SHT30;62257;48.376;-4.378;2022-07-29T14:41:48;25.31;47.20
73688;SHT30;62257;48.376;-4.378;2022-07-29T14:44:13;25.28;48.13
73688;SHT30;62257;48.376;-4.378;2022-07-29T14:46:39;25.28;47.73
73688;SHT30;62257;48.376;-4.378;2022-07-29T14:49:04;25.26;47.24
73688;SHT30;62257;48.376;-4.378;2022-07-29T14:51:31;25.22;47.36
73688;SHT30;62257;48.376;-4.378;2022-07-29T14:53:56;25.17;47.57
73688;SHT30;62257;48.376;-4.378;2022-07-29T14:56:22;25.16;48.08
73688;SHT30;62257;48.376;-4.378;2022-07-29T14:58:48;25.16;47.77
73688;SHT30;62257;48.376;-4.378;2022-07-29T15:01:13;25.03;47.74
73688;SHT30;62257;48.376;-4.378;2022-07-29T15:03:39;24.96;47.50
73688;SHT30;62257;48.376;-4.378;2022-07-29T15:06:04;24.96;48.06
73688;SHT30;62257;48.376;-4.378;2022-07-29T15:08:30;24.98;48.04
73688;SHT30;62257;48.376;-4.378;2022-07-29T15:10:56;25.02;48.28
73688;SHT30;62257;48.376;-4.378;2022-07-29T15:13:25;24.96;47.95
73688;SHT30;62257;48.376;-4.378;2022-07-29T15:15:51;24.99;48.18
73688;SHT30;62257;48.376;-4.378;2022-07-29T15:18:16;24.98;48.04
73688;SHT30;62257;48.376;-4.378;2022-07-29T15:20:42;24.99;48.55
73688;SHT30;62257;48.376;-4.378;2022-07-29T15:23:07;24.98;48.18
73688;SHT30;62257;48.376;-4.378;2022-07-29T15:25:35;24.96;48.52
73688;SHT30;62257;48.376;-4.378;2022-07-29T15:28:01;24.98;48.25
73688;SHT30;62257;48.376;-4.378;2022-07-29T15:30:30;24.90;47.26
73688;SHT30;62257;48.376;-4.378;2022-07-29T15:32:55;24.89;47.79
73688;SHT30;62257;48.376;-4.378;2022-07-29T15:35:21;24.81;47.78
73688;SHT30;62257;48.376;-4.378;2022-07-29T15:37:46;24.83;48.13
73688;SHT30;62257;48.376;-4.378;2022-07-29T15:40:11;24.88;47.99
73688;SHT30;62257;48.376;-4.378;2022-07-29T15:42:37;24.89;47.78
73688;SHT30;62257;48.376;-4.378;2022-07-29T15:45:03;24.89;47.60
73688;SHT30;62257;48.376;-4.378;2022-07-29T15:47:29;24.85;47.41
73688;SHT30;62257;48.376;-4.378;2022-07-29T15:49:54;24.71;47.70
73688;SHT30;62257;48.376;-4.378;2022-07-29T15:52:20;24.67;47.43
73688;SHT30;62257;48.376;-4.378;2022-07-29T15:54:46;24.69;47.73
73688;SHT30;62257;48.376;-4.378;2022-07-29T15:57:11;24.82;47.94